sensor_id;sensor_type;location;lat;lon;timestamp;temperature;humidity
9223;DHT22;7557;51.698;3.942;2023-06-01T00:00:03;13.50;99.90
9223;DHT22;7557;51.698;3.942;2023-06-01T00:02:35;13.50;99.90
9223;DHT22;7557;51.698;3.942;2023-06-01T00:05:02;13.40;99.90
9223;DHT22;7557;51.698;3.942;2023-06-01T00:07:29;13.40;99.90
9223;DHT22;7557;51.698;3.942;2023-06-01T00:10:00;13.40;99.90
9223;DHT22;7557;51.698;3.942;2023-06-01T00:12:27;13.40;99.90
9223;DHT22;7557;51.698;3.942;2023-06-01T00:14:54;13.40;99.90
9223;DHT22;7557;51.698;3.942;2023-06-01T00:17:21;13.30;99.90
9223;DHT22;7557;51.698;3.942;2023-06-01T00:19:49;13.30;99.90
9223;DHT22;7557;51.698;3.942;2023-06-01T00:22:19;13.40;99.90
9223;DHT22;7557;51.698;3.942;2023-06-01T00:24:46;13.40;99.90
9223;DHT22;7557;51.698;3.942;2023-06-01T00:27:15;13.40;99.90
9223;DHT22;7557;51.698;3.942;2023-06-01T00:29:42;13.40;99.90
9223;DHT22;7557;51.698;3.942;2023-06-01T00:32:09;13.40;99.90
9223;DHT22;7557;51.698;3.942;2023-06-01T00:34:36;13.40;99.90
9223;DHT22;7557;51.698;3.942;2023-06-01T00:37:04;13.40;99.90
9223;DHT22;7557;51.698;3.942;2023-06-01T00:39:31;13.30;99.90
9223;DHT22;7557;51.698;3.942;2023-06-01T00:41:58;13.20;99.90
9223;DHT22;7557;51.698;3.942;2023-06-01T00:44:27;13.20;99.90
9223;DHT22;7557;51.698;3.942;2023-06-01T00:50:16;13.20;99.90
9223;DHT22;7557;51.698;3.942;2023-06-01T00:52:43;13.20;99.90
9223;DHT22;7557;51.698;3.942;2023-06-01T00:55:12;13.20;99.90
9223;DHT22;7557;51.698;3.942;2023-06-01T00:57:40;13.20;99.90
9223;DHT22;7557;51.698;3.942;2023-06-01T01:00:11;13.20;99.90
9223;DHT22;7557;51.698;3.942;2023-06-01T01:02:40;13.20;99.90
9223;DHT22;7557;51.698;3.942;2023-06-01T01:05:09;13.10;99.90
9223;DHT22;7557;51.698;3.942;2023-06-01T01:07:43;13.10;99.90
9223;DHT22;7557;51.698;3.942;2023-06-01T01:10:19;13.00;99.90
9223;DHT22;7557;51.698;3.942;2023-06-01T01:12:55;13.00;99.90
9223;DHT22;7557;51.698;3.942;2023-06-01T01:15:32;13.00;99.90
9223;DHT22;7557;51.698;3.942;2023-06-01T01:18:09;13.10;99.90
9223;DHT22;7557;51.698;3.942;2023-06-01T01:20:41;13.00;99.90
9223;DHT22;7557;51.698;3.942;2023-06-01T01:23:17;12.90;99.90
9223;DHT22;7557;51.698;3.942;2023-06-01T01:26:15;12.90;99.90
9223;DHT22;7557;51.698;3.942;2023-06-01T01:28:51;13.00;99.90
9223;DHT22;7557;51.698;3.942;2023-06-01T01:31:21;12.90;99.90
9223;DHT22;7557;51.698;3.942;2023-06-01T01:33:50;12.90;99.90
9223;DHT22;7557;51.698;3.942;2023-06-01T01:36:18;13.00;99.90
9223;DHT22;7557;51.698;3.942;2023-06-01T01:38:46;13.00;99.90
9223;DHT22;7557;51.698;3.942;2023-06-01T01:41:13;13.10;99.90
9223;DHT22;7557;51.698;3.942;2023-06-01T01:43:41;13.20;99.90
9223;DHT22;7557;51.698;3.942;2023-06-01T01:46:21;13.20;99.90
9223;DHT22;7557;51.698;3.942;2023-06-01T01:48:55;13.30;99.90
9223;DHT22;7557;51.698;3.942;2023-06-01T01:51:29;13.40;99.90
9223;DHT22;7557;51.698;3.942;2023-06-01T01:53:59;13.50;99.90
9223;DHT22;7557;51.698;3.942;2023-06-01T01:56:26;13.60;99.90
9223;DHT22;7557;51.698;3.942;2023-06-01T01:58:55;13.60;99.90
9223;DHT22;7557;51.698;3.942;2023-06-01T02:01:25;13.60;99.90
9223;DHT22;7557;51.698;3.942;2023-06-01T02:03:59;13.60;99.90
9223;DHT22;7557;51.698;3.942;2023-06-01T02:06:27;13.60;99.90
9223;DHT22;7557;51.698;3.942;2023-06-01T02:08:54;13.60;99.90
9223;DHT22;7557;51.698;3.942;2023-06-01T02:11:21;13.50;99.90
9223;DHT22;7557;51.698;3.942;2023-06-01T02:13:48;13.60;99.90
9223;DHT22;7557;51.698;3.942;2023-06-01T02:16:16;13.60;99.90
9223;DHT22;7557;51.698;3.942;2023-06-01T02:18:45;13.70;99.90
9223;DHT22;7557;51.698;3.942;2023-06-01T02:21:13;13.60;99.90
9223;DHT22;7557;51.698;3.942;2023-06-01T02:23:41;13.50;99.90
9223;DHT22;7557;51.698;3.942;2023-06-01T02:26:08;13.40;99.90
9223;DHT22;7557;51.698;3.942;2023-06-01T02:28:37;13.30;99.90
9223;DHT22;7557;51.698;3.942;2023-06-01T02:31:06;13.30;99.90
9223;DHT22;7557;51.698;3.942;2023-06-01T02:33:33;13.40;99.90
9223;DHT22;7557;51.698;3.942;2023-06-01T02:36:02;13.40;99.90
9223;DHT22;7557;51.698;3.942;2023-06-01T02:38:30;13.40;99.90
9223;DHT22;7557;51.698;3.942;2023-06-01T02:40:57;13.40;99.90
9223;DHT22;7557;51.698;3.942;2023-06-01T02:43:24;13.30;99.90
9223;DHT22;7557;51.698;3.942;2023-06-01T02:45:51;13.20;99.90
9223;DHT22;7557;51.698;3.942;2023-06-01T02:48:19;13.20;99.90
9223;DHT22;7557;51.698;3.942;2023-06-01T02:50:46;13.20;99.90
9223;DHT22;7557;51.698;3.942;2023-06-01T02:53:15;13.20;99.90
9223;DHT22;7557;51.698;3.942;2023-06-01T02:55:42;13.20;99.90
9223;DHT22;7557;51.698;3.942;2023-06-01T02:58:09;13.10;99.90
9223;DHT22;7557;51.698;3.942;2023-06-01T03:00:41;13.00;99.90
9223;DHT22;7557;51.698;3.942;2023-06-01T03:03:09;12.90;99.90
9223;DHT22;7557;51.698;3.942;2023-06-01T03:05:36;12.90;99.90
9223;DHT22;7557;51.698;3.942;2023-06-01T03:08:04;12.90;99.90
9223;DHT22;7557;51.698;3.942;2023-06-01T03:10:33;12.90;99.90
9223;DHT22;7557;51.698;3.942;2023-06-01T03:13:01;12.90;99.90
9223;DHT22;7557;51.698;3.942;2023-06-01T03:15:28;12.80;99.90
9223;DHT22;7557;51.698;3.942;2023-06-01T03:17:55;12.80;99.90
9223;DHT22;7557;51.698;3.942;2023-06-01T03:20:22;12.80;99.90
9223;DHT22;7557;51.698;3.942;2023-06-01T03:22:49;12.90;99.90
9223;DHT22;7557;51.698;3.942;2023-06-01T03:25:17;12.90;99.90
9223;DHT22;7557;51.698;3.942;2023-06-01T03:27:45;12.90;99.90
9223;DHT22;7557;51.698;3.942;2023-06-01T03:30:13;12.80;99.90
9223;DHT22;7557;51.698;3.942;2023-06-01T03:32:42;12.70;99.90
9223;DHT22;7557;51.698;3.942;2023-06-01T03:35:11;12.70;99.90
9223;DHT22;7557;51.698;3.942;2023-06-01T03:37:40;12.60;99.90
9223;DHT22;7557;51.698;3.942;2023-06-01T03:40:08;12.70;99.90
9223;DHT22;7557;51.698;3.942;2023-06-01T03:42:37;12.80;99.90
9223;DHT22;7557;51.698;3.942;2023-06-01T03:45:10;12.70;99.90
9223;DHT22;7557;51.698;3.942;2023-06-01T03:47:38;12.60;99.90
9223;DHT22;7557;51.698;3.942;2023-06-01T03:50:07;12.50;99.90
9223;DHT22;7557;51.698;3.942;2023-06-01T03:52:35;12.40;99.90
9223;DHT22;7557;51.698;3.942;2023-06-01T03:55:06;12.40;99.90
9223;DHT22;7557;51.698;3.942;2023-06-01T03:57:36;12.40;99.90
9223;DHT22;7557;51.698;3.942;2023-06-01T04:00:04;12.30;99.90
9223;DHT22;7557;51.698;3.942;2023-06-01T04:02:46;12.40;99.90
9223;DHT22;7557;51.698;3.942;2023-06-01T04:05:15;12.40;99.90
9223;DHT22;7557;51.698;3.942;2023-06-01T04:07:44;12.40;99.90
9223;DHT22;7557;51.698;3.942;2023-06-01T04:10:12;12.40;99.90
9223;DHT22;7557;51.698;3.942;2023-06-01T04:12:40;12.40;99.90
9223;DHT22;7557;51.698;3.942;2023-06-01T04:15:12;12.40;99.90
9223;DHT22;7557;51.698;3.942;2023-06-01T04:17:41;12.50;99.90
9223;DHT22;7557;51.698;3.942;2023-06-01T04:20:11;12.60;99.90
9223;DHT22;7557;51.698;3.942;2023-06-01T04:22:40;12.60;99.90
9223;DHT22;7557;51.698;3.942;2023-06-01T04:25:09;12.60;99.90
9223;DHT22;7557;51.698;3.942;2023-06-01T04:27:40;12.60;99.90
9223;DHT22;7557;51.698;3.942;2023-06-01T04:30:11;12.60;99.90
9223;DHT22;7557;51.698;3.942;2023-06-01T04:32:38;12.60;99.90
9223;DHT22;7557;51.698;3.942;2023-06-01T04:35:07;12.60;99.90
9223;DHT22;7557;51.698;3.942;2023-06-01T04:37:37;12.50;99.90
9223;DHT22;7557;51.698;3.942;2023-06-01T04:40:06;12.60;99.90
9223;DHT22;7557;51.698;3.942;2023-06-01T04:42:35;12.70;99.90
9223;DHT22;7557;51.698;3.942;2023-06-01T04:45:05;12.70;99.90
9223;DHT22;7557;51.698;3.942;2023-06-01T04:47:33;12.80;99.90
9223;DHT22;7557;51.698;3.942;2023-06-01T04:50:04;12.90;99.90
9223;DHT22;7557;51.698;3.942;2023-06-01T04:52:32;12.90;99.90
9223;DHT22;7557;51.698;3.942;2023-06-01T04:55:01;12.90;99.90
9223;DHT22;7557;51.698;3.942;2023-06-01T04:57:30;12.90;99.90
9223;DHT22;7557;51.698;3.942;2023-06-01T04:59:58;12.90;99.90
9223;DHT22;7557;51.698;3.942;2023-06-01T05:02:27;13.00;99.90
9223;DHT22;7557;51.698;3.942;2023-06-01T05:04:55;13.10;99.90
9223;DHT22;7557;51.698;3.942;2023-06-01T05:07:22;13.10;99.90
9223;DHT22;7557;51.698;3.942;2023-06-01T05:09:50;13.20;99.90
9223;DHT22;7557;51.698;3.942;2023-06-01T05:12:19;13.10;99.90
9223;DHT22;7557;51.698;3.942;2023-06-01T05:14:47;13.10;99.90
9223;DHT22;7557;51.698;3.942;2023-06-01T05:17:14;13.00;99.90
9223;DHT22;7557;51.698;3.942;2023-06-01T05:19:41;13.00;99.90
9223;DHT22;7557;51.698;3.942;2023-06-01T05:22:09;13.10;99.90
9223;DHT22;7557;51.698;3.942;2023-06-01T05:24:37;13.20;99.90
9223;DHT22;7557;51.698;3.942;2023-06-01T05:27:05;13.30;99.90
9223;DHT22;7557;51.698;3.942;2023-06-01T05:29:34;13.30;99.90
9223;DHT22;7557;51.698;3.942;2023-06-01T05:32:02;13.40;99.90
9223;DHT22;7557;51.698;3.942;2023-06-01T05:34:29;13.30;99.90
9223;DHT22;7557;51.698;3.942;2023-06-01T05:36:57;13.30;99.90
9223;DHT22;7557;51.698;3.942;2023-06-01T05:39:25;13.30;99.90
9223;DHT22;7557;51.698;3.942;2023-06-01T05:41:54;13.30;99.90
9223;DHT22;7557;51.698;3.942;2023-06-01T05:44:21;13.30;99.90
9223;DHT22;7557;51.698;3.942;2023-06-01T05:46:50;13.30;99.90
9223;DHT22;7557;51.698;3.942;2023-06-01T05:49:18;13.40;99.90
9223;DHT22;7557;51.698;3.942;2023-06-01T05:51:46;13.40;99.90
9223;DHT22;7557;51.698;3.942;2023-06-01T05:54:13;13.40;99.90
9223;DHT22;7557;51.698;3.942;2023-06-01T05:56:40;13.40;99.90
9223;DHT22;7557;51.698;3.942;2023-06-01T05:59:08;13.50;99.90
9223;DHT22;7557;51.698;3.942;2023-06-01T06:01:35;13.40;99.90
9223;DHT22;7557;51.698;3.942;2023-06-01T06:04:05;13.40;99.90
9223;DHT22;7557;51.698;3.942;2023-06-01T06:06:32;13.30;99.90
9223;DHT22;7557;51.698;3.942;2023-06-01T06:09:00;13.40;99.90
9223;DHT22;7557;51.698;3.942;2023-06-01T06:11:27;13.50;99.90
9223;DHT22;7557;51.698;3.942;2023-06-01T06:13:55;13.50;99.90
9223;DHT22;7557;51.698;3.942;2023-06-01T06:16:22;13.70;99.90
9223;DHT22;7557;51.698;3.942;2023-06-01T06:18:50;13.80;99.90
9223;DHT22;7557;51.698;3.942;2023-06-01T06:21:18;14.00;99.90
9223;DHT22;7557;51.698;3.942;2023-06-01T06:23:46;14.20;99.90
9223;DHT22;7557;51.698;3.942;2023-06-01T06:26:13;14.30;99.90
9223;DHT22;7557;51.698;3.942;2023-06-01T06:28:41;14.20;99.90
9223;DHT22;7557;51.698;3.942;2023-06-01T06:31:08;14.10;99.90
9223;DHT22;7557;51.698;3.942;2023-06-01T06:33:35;14.00;99.90
9223;DHT22;7557;51.698;3.942;2023-06-01T06:36:03;14.00;99.90
9223;DHT22;7557;51.698;3.942;2023-06-01T06:38:33;13.90;99.90
9223;DHT22;7557;51.698;3.942;2023-06-01T06:41:00;13.80;99.90
9223;DHT22;7557;51.698;3.942;2023-06-01T06:43:27;13.80;99.90
9223;DHT22;7557;51.698;3.942;2023-06-01T06:45:55;13.80;99.90
9223;DHT22;7557;51.698;3.942;2023-06-01T06:48:22;13.90;99.90
9223;DHT22;7557;51.698;3.942;2023-06-01T06:50:49;14.30;99.90
9223;DHT22;7557;51.698;3.942;2023-06-01T06:53:17;14.50;99.90
9223;DHT22;7557;51.698;3.942;2023-06-01T06:55:46;14.70;99.90
9223;DHT22;7557;51.698;3.942;2023-06-01T06:58:14;14.70;99.90
9223;DHT22;7557;51.698;3.942;2023-06-01T07:00:41;14.80;99.90
9223;DHT22;7557;51.698;3.942;2023-06-01T07:03:09;14.80;99.90
9223;DHT22;7557;51.698;3.942;2023-06-01T07:05:37;14.90;99.90
9223;DHT22;7557;51.698;3.942;2023-06-01T07:08:04;15.00;99.90
9223;DHT22;7557;51.698;3.942;2023-06-01T07:10:31;15.10;99.90
9223;DHT22;7557;51.698;3.942;2023-06-01T07:13:01;15.30;99.90
9223;DHT22;7557;51.698;3.942;2023-06-01T07:15:28;15.40;99.90
9223;DHT22;7557;51.698;3.942;2023-06-01T07:17:56;15.60;99.90
9223;DHT22;7557;51.698;3.942;2023-06-01T07:20:23;15.70;99.90
9223;DHT22;7557;51.698;3.942;2023-06-01T07:22:50;15.80;99.90
9223;DHT22;7557;51.698;3.942;2023-06-01T07:25:18;16.00;99.90
9223;DHT22;7557;51.698;3.942;2023-06-01T07:27:45;16.20;99.90
9223;DHT22;7557;51.698;3.942;2023-06-01T07:30:15;16.30;99.90
9223;DHT22;7557;51.698;3.942;2023-06-01T07:32:43;16.50;99.90
9223;DHT22;7557;51.698;3.942;2023-06-01T07:35:10;16.50;99.90
9223;DHT22;7557;51.698;3.942;2023-06-01T07:37:38;16.60;99.90
9223;DHT22;7557;51.698;3.942;2023-06-01T07:40:07;16.70;99.90
9223;DHT22;7557;51.698;3.942;2023-06-01T07:42:35;16.90;99.90
9223;DHT22;7557;51.698;3.942;2023-06-01T07:45:03;17.00;99.90
9223;DHT22;7557;51.698;3.942;2023-06-01T07:47:33;16.90;99.90
9223;DHT22;7557;51.698;3.942;2023-06-01T07:50:00;16.90;99.90
9223;DHT22;7557;51.698;3.942;2023-06-01T07:52:28;16.60;99.90
9223;DHT22;7557;51.698;3.942;2023-06-01T07:54:55;16.30;99.90
9223;DHT22;7557;51.698;3.942;2023-06-01T07:57:23;16.10;99.90
9223;DHT22;7557;51.698;3.942;2023-06-01T07:59:50;16.20;99.90
9223;DHT22;7557;51.698;3.942;2023-06-01T08:02:18;16.40;99.90
9223;DHT22;7557;51.698;3.942;2023-06-01T08:04:47;16.60;99.90
9223;DHT22;7557;51.698;3.942;2023-06-01T08:07:15;16.40;99.90
9223;DHT22;7557;51.698;3.942;2023-06-01T08:09:44;16.30;99.90
9223;DHT22;7557;51.698;3.942;2023-06-01T08:12:13;16.30;99.90
9223;DHT22;7557;51.698;3.942;2023-06-01T08:14:40;16.30;99.90
9223;DHT22;7557;51.698;3.942;2023-06-01T08:17:11;16.40;99.90
9223;DHT22;7557;51.698;3.942;2023-06-01T08:19:40;16.50;99.90
9223;DHT22;7557;51.698;3.942;2023-06-01T08:22:09;16.60;99.90
9223;DHT22;7557;51.698;3.942;2023-06-01T08:24:39;16.70;99.90
9223;DHT22;7557;51.698;3.942;2023-06-01T08:27:16;16.90;99.90
9223;DHT22;7557;51.698;3.942;2023-06-01T08:29:45;16.90;99.90
9223;DHT22;7557;51.698;3.942;2023-06-01T08:32:14;16.90;99.90
9223;DHT22;7557;51.698;3.942;2023-06-01T08:34:44;16.80;99.90
9223;DHT22;7557;51.698;3.942;2023-06-01T08:37:14;16.80;99.90
9223;DHT22;7557;51.698;3.942;2023-06-01T08:39:42;16.90;99.90
9223;DHT22;7557;51.698;3.942;2023-06-01T08:42:13;17.10;99.90
9223;DHT22;7557;51.698;3.942;2023-06-01T08:44:44;17.30;99.90
9223;DHT22;7557;51.698;3.942;2023-06-01T08:47:13;17.20;99.90
9223;DHT22;7557;51.698;3.942;2023-06-01T08:49:41;17.20;99.90
9223;DHT22;7557;51.698;3.942;2023-06-01T08:52:13;17.20;99.90
9223;DHT22;7557;51.698;3.942;2023-06-01T08:54:41;17.30;99.90
9223;DHT22;7557;51.698;3.942;2023-06-01T08:57:08;17.30;99.90
9223;DHT22;7557;51.698;3.942;2023-06-01T08:59:36;17.20;99.90
9223;DHT22;7557;51.698;3.942;2023-06-01T09:02:05;17.20;99.90
9223;DHT22;7557;51.698;3.942;2023-06-01T09:04:33;17.20;99.90
9223;DHT22;7557;51.698;3.942;2023-06-01T09:07:03;17.30;99.90
9223;DHT22;7557;51.698;3.942;2023-06-01T09:09:33;17.30;99.90
9223;DHT22;7557;51.698;3.942;2023-06-01T09:12:18;17.20;99.90
9223;DHT22;7557;51.698;3.942;2023-06-01T09:14:46;17.20;99.90
9223;DHT22;7557;51.698;3.942;2023-06-01T09:17:14;17.10;99.90
9223;DHT22;7557;51.698;3.942;2023-06-01T09:19:42;17.20;99.90
9223;DHT22;7557;51.698;3.942;2023-06-01T09:22:11;17.30;99.90
9223;DHT22;7557;51.698;3.942;2023-06-01T09:24:40;17.30;99.90
9223;DHT22;7557;51.698;3.942;2023-06-01T09:27:08;17.50;99.90
9223;DHT22;7557;51.698;3.942;2023-06-01T09:29:36;17.40;99.90
9223;DHT22;7557;51.698;3.942;2023-06-01T09:32:03;17.40;99.90
9223;DHT22;7557;51.698;3.942;2023-06-01T09:34:31;17.50;99.90
9223;DHT22;7557;51.698;3.942;2023-06-01T09:37:05;17.30;99.90
9223;DHT22;7557;51.698;3.942;2023-06-01T09:39:33;17.30;99.90
9223;DHT22;7557;51.698;3.942;2023-06-01T09:42:03;17.30;99.90
9223;DHT22;7557;51.698;3.942;2023-06-01T09:44:33;17.30;99.90
9223;DHT22;7557;51.698;3.942;2023-06-01T09:47:02;17.20;99.90
9223;DHT22;7557;51.698;3.942;2023-06-01T09:49:31;17.10;99.90
9223;DHT22;7557;51.698;3.942;2023-06-01T09:52:13;17.20;99.90
9223;DHT22;7557;51.698;3.942;2023-06-01T09:54:44;17.20;99.90
9223;DHT22;7557;51.698;3.942;2023-06-01T09:57:20;17.20;99.90
9223;DHT22;7557;51.698;3.942;2023-06-01T09:59:47;17.10;99.90
9223;DHT22;7557;51.698;3.942;2023-06-01T10:02:17;17.10;99.90
9223;DHT22;7557;51.698;3.942;2023-06-01T10:04:48;17.30;99.90
9223;DHT22;7557;51.698;3.942;2023-06-01T10:07:16;17.40;99.90
9223;DHT22;7557;51.698;3.942;2023-06-01T10:09:50;17.30;99.90
9223;DHT22;7557;51.698;3.942;2023-06-01T10:12:19;17.30;99.90
9223;DHT22;7557;51.698;3.942;2023-06-01T10:14:48;17.20;99.90
9223;DHT22;7557;51.698;3.942;2023-06-01T10:17:16;17.20;99.90
9223;DHT22;7557;51.698;3.942;2023-06-01T10:19:45;17.20;99.90
9223;DHT22;7557;51.698;3.942;2023-06-01T10:22:15;17.20;99.90
9223;DHT22;7557;51.698;3.942;2023-06-01T10:24:44;17.10;99.90
9223;DHT22;7557;51.698;3.942;2023-06-01T10:27:18;17.10;99.90
9223;DHT22;7557;51.698;3.942;2023-06-01T10:29:48;17.00;99.90
9223;DHT22;7557;51.698;3.942;2023-06-01T10:32:40;16.90;99.90
9223;DHT22;7557;51.698;3.942;2023-06-01T10:35:08;17.00;99.90
9223;DHT22;7557;51.698;3.942;2023-06-01T10:37:38;17.00;99.90
9223;DHT22;7557;51.698;3.942;2023-06-01T10:40:20;17.00;99.90
9223;DHT22;7557;51.698;3.942;2023-06-01T10:42:47;17.00;99.90
9223;DHT22;7557;51.698;3.942;2023-06-01T10:45:38;16.90;99.90
9223;DHT22;7557;51.698;3.942;2023-06-01T10:48:07;16.90;99.90
9223;DHT22;7557;51.698;3.942;2023-06-01T10:50:37;16.90;99.90
9223;DHT22;7557;51.698;3.942;2023-06-01T10:53:23;16.90;99.90
9223;DHT22;7557;51.698;3.942;2023-06-01T10:56:18;16.90;99.90
9223;DHT22;7557;51.698;3.942;2023-06-01T10:58:51;16.80;99.90
9223;DHT22;7557;51.698;3.942;2023-06-01T11:01:39;16.80;99.90
9223;DHT22;7557;51.698;3.942;2023-06-01T11:04:07;16.70;99.90
9223;DHT22;7557;51.698;3.942;2023-06-01T11:06:37;16.80;99.90
9223;DHT22;7557;51.698;3.942;2023-06-01T11:09:06;16.80;99.90
9223;DHT22;7557;51.698;3.942;2023-06-01T11:12:02;16.80;99.90
9223;DHT22;7557;51.698;3.942;2023-06-01T11:14:30;16.90;99.90
9223;DHT22;7557;51.698;3.942;2023-06-01T11:17:28;16.90;99.90
9223;DHT22;7557;51.698;3.942;2023-06-01T11:20:01;16.90;99.90
9223;DHT22;7557;51.698;3.942;2023-06-01T11:22:37;17.00;99.90
9223;DHT22;7557;51.698;3.942;2023-06-01T11:25:06;17.00;99.90
9223;DHT22;7557;51.698;3.942;2023-06-01T11:27:35;17.20;99.90
9223;DHT22;7557;51.698;3.942;2023-06-01T11:30:04;17.20;99.90
9223;DHT22;7557;51.698;3.942;2023-06-01T11:32:33;17.10;99.90
9223;DHT22;7557;51.698;3.942;2023-06-01T11:35:20;17.10;99.90
9223;DHT22;7557;51.698;3.942;2023-06-01T11:37:54;17.00;99.90
9223;DHT22;7557;51.698;3.942;2023-06-01T11:40:21;17.00;99.90
9223;DHT22;7557;51.698;3.942;2023-06-01T11:42:49;17.10;99.90
9223;DHT22;7557;51.698;3.942;2023-06-01T11:45:17;17.00;99.90
9223;DHT22;7557;51.698;3.942;2023-06-01T11:47:46;16.90;99.90
9223;DHT22;7557;51.698;3.942;2023-06-01T11:50:23;16.80;99.90
9223;DHT22;7557;51.698;3.942;2023-06-01T11:52:54;16.90;99.90
9223;DHT22;7557;51.698;3.942;2023-06-01T11:55:22;16.90;99.90
9223;DHT22;7557;51.698;3.942;2023-06-01T11:57:50;17.00;99.90
9223;DHT22;7557;51.698;3.942;2023-06-01T12:00:17;16.90;99.90
9223;DHT22;7557;51.698;3.942;2023-06-01T12:02:46;16.70;99.90
9223;DHT22;7557;51.698;3.942;2023-06-01T12:05:14;16.70;99.90
9223;DHT22;7557;51.698;3.942;2023-06-01T12:07:45;16.70;99.90
9223;DHT22;7557;51.698;3.942;2023-06-01T12:10:13;16.80;99.90
9223;DHT22;7557;51.698;3.942;2023-06-01T12:12:43;16.80;99.90
9223;DHT22;7557;51.698;3.942;2023-06-01T12:15:11;16.70;99.90
9223;DHT22;7557;51.698;3.942;2023-06-01T12:17:51;16.60;99.90
9223;DHT22;7557;51.698;3.942;2023-06-01T12:20:37;16.70;99.90
9223;DHT22;7557;51.698;3.942;2023-06-01T12:23:13;16.80;99.90
9223;DHT22;7557;51.698;3.942;2023-06-01T12:25:52;16.70;99.90
9223;DHT22;7557;51.698;3.942;2023-06-01T12:28:20;16.70;99.90
9223;DHT22;7557;51.698;3.942;2023-06-01T12:30:49;16.70;99.90
9223;DHT22;7557;51.698;3.942;2023-06-01T12:33:34;16.70;99.90
9223;DHT22;7557;51.698;3.942;2023-06-01T12:36:02;16.80;99.90
9223;DHT22;7557;51.698;3.942;2023-06-01T12:38:34;16.90;99.90
9223;DHT22;7557;51.698;3.942;2023-06-01T12:41:06;16.90;99.90
9223;DHT22;7557;51.698;3.942;2023-06-01T12:43:34;16.80;99.90
9223;DHT22;7557;51.698;3.942;2023-06-01T12:46:03;16.70;99.90
9223;DHT22;7557;51.698;3.942;2023-06-01T12:48:33;16.60;99.90
9223;DHT22;7557;51.698;3.942;2023-06-01T12:51:02;16.60;99.90
9223;DHT22;7557;51.698;3.942;2023-06-01T12:53:30;16.80;99.90
9223;DHT22;7557;51.698;3.942;2023-06-01T12:55:57;16.80;99.90
9223;DHT22;7557;51.698;3.942;2023-06-01T12:58:27;16.90;99.90
9223;DHT22;7557;51.698;3.942;2023-06-01T13:00:55;17.10;99.90
9223;DHT22;7557;51.698;3.942;2023-06-01T13:03:22;17.00;99.90
9223;DHT22;7557;51.698;3.942;2023-06-01T13:05:52;16.90;99.90
9223;DHT22;7557;51.698;3.942;2023-06-01T13:08:20;16.90;99.90
9223;DHT22;7557;51.698;3.942;2023-06-01T13:10:48;16.90;99.90
9223;DHT22;7557;51.698;3.942;2023-06-01T13:13:15;16.80;99.90
9223;DHT22;7557;51.698;3.942;2023-06-01T13:15:43;16.70;99.90
9223;DHT22;7557;51.698;3.942;2023-06-01T13:18:11;16.80;99.90
9223;DHT22;7557;51.698;3.942;2023-06-01T13:20:39;16.80;99.90
9223;DHT22;7557;51.698;3.942;2023-06-01T13:23:09;16.80;99.90
9223;DHT22;7557;51.698;3.942;2023-06-01T13:25:38;16.70;99.90
9223;DHT22;7557;51.698;3.942;2023-06-01T13:28:05;16.70;99.90
9223;DHT22;7557;51.698;3.942;2023-06-01T13:30:33;16.70;99.90
9223;DHT22;7557;51.698;3.942;2023-06-01T13:33:01;16.80;99.90
9223;DHT22;7557;51.698;3.942;2023-06-01T13:35:29;16.80;99.90
9223;DHT22;7557;51.698;3.942;2023-06-01T13:37:57;16.90;99.90
9223;DHT22;7557;51.698;3.942;2023-06-01T13:40:27;17.00;99.90
9223;DHT22;7557;51.698;3.942;2023-06-01T13:42:54;17.10;99.90
9223;DHT22;7557;51.698;3.942;2023-06-01T13:45:23;17.10;99.90
9223;DHT22;7557;51.698;3.942;2023-06-01T13:47:51;17.10;99.90
9223;DHT22;7557;51.698;3.942;2023-06-01T13:50:20;17.00;99.90
9223;DHT22;7557;51.698;3.942;2023-06-01T13:52:48;17.00;99.90
9223;DHT22;7557;51.698;3.942;2023-06-01T13:55:16;17.10;99.90
9223;DHT22;7557;51.698;3.942;2023-06-01T13:57:45;17.10;99.90
9223;DHT22;7557;51.698;3.942;2023-06-01T14:00:15;17.10;99.90
9223;DHT22;7557;51.698;3.942;2023-06-01T14:02:42;17.10;99.90
9223;DHT22;7557;51.698;3.942;2023-06-01T14:05:10;17.00;99.90
9223;DHT22;7557;51.698;3.942;2023-06-01T14:07:40;17.10;99.90
9223;DHT22;7557;51.698;3.942;2023-06-01T14:10:07;17.10;99.90
9223;DHT22;7557;51.698;3.942;2023-06-01T14:12:36;17.00;99.90
9223;DHT22;7557;51.698;3.942;2023-06-01T14:15:07;17.00;99.90
9223;DHT22;7557;51.698;3.942;2023-06-01T14:17:34;16.90;99.90
9223;DHT22;7557;51.698;3.942;2023-06-01T14:20:02;16.90;99.90
9223;DHT22;7557;51.698;3.942;2023-06-01T14:22:30;17.00;99.90
9223;DHT22;7557;51.698;3.942;2023-06-01T14:24:58;17.00;99.90
9223;DHT22;7557;51.698;3.942;2023-06-01T14:27:25;16.90;99.90
9223;DHT22;7557;51.698;3.942;2023-06-01T14:29:53;16.80;99.90
9223;DHT22;7557;51.698;3.942;2023-06-01T14:32:22;16.80;99.90
9223;DHT22;7557;51.698;3.942;2023-06-01T14:34:49;16.70;99.90
9223;DHT22;7557;51.698;3.942;2023-06-01T14:37:17;16.60;99.90
9223;DHT22;7557;51.698;3.942;2023-06-01T14:39:45;16.40;99.90
9223;DHT22;7557;51.698;3.942;2023-06-01T14:42:12;16.20;99.90
9223;DHT22;7557;51.698;3.942;2023-06-01T14:44:40;16.20;99.90
9223;DHT22;7557;51.698;3.942;2023-06-01T14:47:08;16.10;99.90
9223;DHT22;7557;51.698;3.942;2023-06-01T14:49:38;16.10;99.90
9223;DHT22;7557;51.698;3.942;2023-06-01T14:52:06;16.00;99.90
9223;DHT22;7557;51.698;3.942;2023-06-01T14:54:33;16.00;99.90
9223;DHT22;7557;51.698;3.942;2023-06-01T14:57:04;16.10;99.90
9223;DHT22;7557;51.698;3.942;2023-06-01T14:59:33;16.10;99.90
9223;DHT22;7557;51.698;3.942;2023-06-01T15:02:02;16.10;99.90
9223;DHT22;7557;51.698;3.942;2023-06-01T15:04:29;16.00;99.90
9223;DHT22;7557;51.698;3.942;2023-06-01T15:06:58;16.20;99.90
9223;DHT22;7557;51.698;3.942;2023-06-01T15:09:26;16.30;99.90
9223;DHT22;7557;51.698;3.942;2023-06-01T15:11:54;16.30;99.90
9223;DHT22;7557;51.698;3.942;2023-06-01T15:14:25;16.30;99.90
9223;DHT22;7557;51.698;3.942;2023-06-01T15:16:52;16.20;99.90
9223;DHT22;7557;51.698;3.942;2023-06-01T15:19:20;16.10;99.90
9223;DHT22;7557;51.698;3.942;2023-06-01T15:21:47;15.90;99.90
9223;DHT22;7557;51.698;3.942;2023-06-01T15:24:16;15.80;99.90
9223;DHT22;7557;51.698;3.942;2023-06-01T15:26:43;15.70;99.90
9223;DHT22;7557;51.698;3.942;2023-06-01T15:29:11;15.50;99.90
9223;DHT22;7557;51.698;3.942;2023-06-01T15:31:39;15.50;99.90
9223;DHT22;7557;51.698;3.942;2023-06-01T15:34:07;15.40;99.90
9223;DHT22;7557;51.698;3.942;2023-06-01T15:36:35;15.40;99.90
9223;DHT22;7557;51.698;3.942;2023-06-01T15:39:04;15.40;99.90
9223;DHT22;7557;51.698;3.942;2023-06-01T15:41:33;15.30;99.90
9223;DHT22;7557;51.698;3.942;2023-06-01T15:44:00;15.20;99.90
9223;DHT22;7557;51.698;3.942;2023-06-01T15:46:28;15.20;99.90
9223;DHT22;7557;51.698;3.942;2023-06-01T15:48:55;15.30;99.90
9223;DHT22;7557;51.698;3.942;2023-06-01T15:51:23;15.30;99.90
9223;DHT22;7557;51.698;3.942;2023-06-01T15:53:51;15.30;99.90
9223;DHT22;7557;51.698;3.942;2023-06-01T15:56:18;15.20;99.90
9223;DHT22;7557;51.698;3.942;2023-06-01T15:58:48;15.30;99.90
9223;DHT22;7557;51.698;3.942;2023-06-01T16:01:16;15.40;99.90
9223;DHT22;7557;51.698;3.942;2023-06-01T16:03:44;15.40;99.90
9223;DHT22;7557;51.698;3.942;2023-06-01T16:06:11;15.30;99.90
9223;DHT22;7557;51.698;3.942;2023-06-01T16:08:39;15.30;99.90
9223;DHT22;7557;51.698;3.942;2023-06-01T16:11:06;15.40;99.90
9223;DHT22;7557;51.698;3.942;2023-06-01T16:13:33;15.30;99.90
9223;DHT22;7557;51.698;3.942;2023-06-01T16:16:03;15.30;99.90
9223;DHT22;7557;51.698;3.942;2023-06-01T16:18:30;15.30;99.90